New York Mills, Minnesota
Current Conditions -  °F | °C
As of 10:35 PM on Saturday 20 Dec 2014 (Local Time) from KADC Reporting Station
Haze Haze  
Wind Chill: 16°   Ceiling: 400
Heat Index: 27°   Visibility: 5mi
Dew Point: 27°   Wind: 13mph
Humidity: 100%   Direction: 170°S
Pressure: 29.96"   Gusts: 20mph
Location:  46.52°N, 95.38°W
Report Text: KADC 210435Z AUTO 17011G17KT 5SM BR OVC004 M03/M03 A2996 RMK AO2
Loading
Personal Weather Stations






























Interactive Weather Map New forecast layout! Learn more

10-Day Weather Forecast

Advertisements
Track Severe Weather on mobile